Ricardo, Texas
Current Conditions -  °F | °C
As of 6:56 PM on Tuesday 21 Oct 2014 (Local Time) from KNQI Reporting Station
Broken Clouds Broken Clouds  
Wind Chill: 78°   Ceiling: 25000
Heat Index: 80°   Visibility: 10mi
Dew Point: 70°   Wind: 15mph
Humidity: 76%   Direction: 70°ENE
Pressure: 29.95"   Gusts: NA
Location:  27.4762°N, 97.7965°W
Report Text: KNQI 212356Z 07013KT 10SM FEW026 SCT170 BKN250 26/21 A2995 RMK AO2 SLP137 T02560211 10300 20256 53007
Loading
Personal Weather Stations






























Interactive Weather Map
Tropical Storm Tracking
New forecast layout! Learn more

10-Day Weather Forecast

Advertisements
Track Severe Weather on mobile